createdAt,value
2023-04-26T00:00:15.650Z,556.00
2023-04-26T00:01:15.725Z,556.00
2023-04-26T00:02:15.886Z,557.00
2023-04-26T00:03:15.954Z,558.00
2023-04-26T00:04:16.101Z,559.00
2023-04-26T00:05:16.162Z,558.00
2023-04-26T00:06:16.120Z,560.00
2023-04-26T00:07:16.214Z,561.00
2023-04-26T00:08:16.310Z,561.00
2023-04-26T00:09:16.369Z,561.00
2023-04-26T00:10:16.443Z,563.00
2023-04-26T00:11:16.521Z,561.00
2023-04-26T00:12:16.610Z,561.00
2023-04-26T00:13:16.715Z,558.00
2023-04-26T00:14:16.758Z,557.00
2023-04-26T00:15:16.856Z,557.00
2023-04-26T00:16:16.981Z,555.00
2023-04-26T00:17:17.006Z,554.00
2023-04-26T00:18:17.150Z,557.00
2023-04-26T00:19:17.172Z,557.00
2023-04-26T00:20:17.250Z,557.00
2023-04-26T00:21:17.342Z,556.00
2023-04-26T00:22:17.418Z,555.00
2023-04-26T00:23:17.500Z,558.00
2023-04-26T00:24:17.589Z,557.00
2023-04-26T00:25:17.678Z,560.00
2023-04-26T00:26:17.769Z,562.00
2023-04-26T00:27:17.843Z,564.00
2023-04-26T00:28:17.949Z,561.00
2023-04-26T00:29:18.008Z,559.00
2023-04-26T00:30:18.093Z,558.00
2023-04-26T00:31:18.212Z,557.00
2023-04-26T00:32:18.269Z,555.00
2023-04-26T00:33:18.345Z,560.00
2023-04-26T00:34:18.420Z,561.00
2023-04-26T00:35:18.502Z,565.00
2023-04-26T00:36:18.599Z,568.00
2023-04-26T00:37:18.664Z,565.00
2023-04-26T00:38:18.722Z,563.00
2023-04-26T00:39:18.743Z,563.00
2023-04-26T00:40:18.756Z,561.00
2023-04-26T00:41:18.778Z,562.00
2023-04-26T00:42:18.780Z,563.00
2023-04-26T00:43:18.811Z,559.00
2023-04-26T00:44:18.845Z,558.00
2023-04-26T00:45:18.833Z,562.00
2023-04-26T00:46:18.894Z,560.00
2023-04-26T00:47:18.881Z,558.00
2023-04-26T00:48:18.957Z,559.00
2023-04-26T00:49:19.048Z,560.00
2023-04-26T00:50:19.126Z,561.00
2023-04-26T00:51:19.208Z,563.00
2023-04-26T00:52:19.280Z,561.00
2023-04-26T00:53:19.376Z,560.00
2023-04-26T00:54:19.451Z,557.00
2023-04-26T00:55:19.535Z,555.00
2023-04-26T00:56:19.617Z,553.00
2023-04-26T00:57:19.690Z,553.00
2023-04-26T00:58:19.767Z,555.00
2023-04-26T00:59:19.841Z,556.00
2023-04-26T01:00:19.906Z,556.00
2023-04-26T01:01:20.060Z,556.00
2023-04-26T01:02:20.160Z,557.00
2023-04-26T01:03:20.267Z,556.00
2023-04-26T01:04:20.374Z,556.00
2023-04-26T01:05:20.269Z,560.00
2023-04-26T01:06:20.336Z,561.00
2023-04-26T01:07:20.395Z,560.00
2023-04-26T01:08:20.417Z,559.00
2023-04-26T01:09:20.433Z,556.00
2023-04-26T01:10:20.468Z,558.00
2023-04-26T01:11:20.462Z,558.00
2023-04-26T01:12:20.478Z,560.00
2023-04-26T01:13:20.491Z,560.00
2023-04-26T01:14:20.519Z,559.00
2023-04-26T01:15:20.523Z,558.00
2023-04-26T01:16:20.547Z,556.00
2023-04-26T01:17:20.645Z,558.00
2023-04-26T01:18:20.690Z,561.00
2023-04-26T01:19:20.760Z,559.00
2023-04-26T01:20:20.836Z,557.00
2023-04-26T01:21:20.925Z,556.00
2023-04-26T01:22:20.979Z,557.00
2023-04-26T01:23:21.055Z,556.00
2023-04-26T01:24:21.153Z,556.00
2023-04-26T01:25:21.217Z,556.00
2023-04-26T01:26:21.285Z,554.00
2023-04-26T01:27:21.375Z,553.00
2023-04-26T01:28:21.470Z,552.00
2023-04-26T01:29:21.584Z,554.00
2023-04-26T01:30:21.624Z,554.00
2023-04-26T01:31:21.736Z,557.00
2023-04-26T01:32:21.773Z,556.00
2023-04-26T01:33:21.868Z,555.00
2023-04-26T01:34:21.946Z,553.00
2023-04-26T01:35:22.031Z,553.00
2023-04-26T01:36:22.165Z,551.00
2023-04-26T01:37:22.161Z,550.00
2023-04-26T01:38:22.221Z,550.00
2023-04-26T01:39:22.316Z,547.00
2023-04-26T01:40:22.387Z,547.00
2023-04-26T01:41:22.448Z,549.00
2023-04-26T01:42:22.531Z,548.00
2023-04-26T01:43:22.606Z,550.00
2023-04-26T01:44:22.682Z,549.00
2023-04-26T01:45:22.733Z,549.00
2023-04-26T01:46:22.946Z,546.00
2023-04-26T01:47:22.922Z,548.00
2023-04-26T01:48:22.956Z,550.00
2023-04-26T01:49:23.032Z,552.00
2023-04-26T01:50:23.084Z,550.00
2023-04-26T01:51:23.157Z,548.00
2023-04-26T01:52:23.185Z,552.00
2023-04-26T01:53:23.192Z,553.00
2023-04-26T01:54:23.225Z,554.00
2023-04-26T01:55:23.258Z,552.00
2023-04-26T01:56:23.264Z,550.00
2023-04-26T01:57:23.286Z,548.00
2023-04-26T01:58:23.305Z,547.00
2023-04-26T01:59:23.339Z,548.00
2023-04-26T02:00:23.332Z,550.00
2023-04-26T02:01:23.368Z,547.00
2023-04-26T02:02:23.459Z,549.00
2023-04-26T02:03:23.570Z,547.00
2023-04-26T02:04:23.560Z,547.00
2023-04-26T02:05:23.702Z,549.00
2023-04-26T02:06:23.791Z,550.00
2023-04-26T02:07:23.765Z,549.00
2023-04-26T02:08:23.861Z,547.00
2023-04-26T02:09:23.905Z,546.00
2023-04-26T02:10:23.982Z,545.00
2023-04-26T02:11:24.052Z,545.00
2023-04-26T02:12:24.131Z,544.00
2023-04-26T02:13:24.197Z,544.00
2023-04-26T02:14:24.284Z,542.00
2023-04-26T02:15:24.355Z,545.00
2023-04-26T02:16:24.511Z,546.00
2023-04-26T02:17:24.495Z,548.00
2023-04-26T02:18:24.566Z,551.00
2023-04-26T02:19:24.616Z,551.00
2023-04-26T02:20:24.697Z,552.00
2023-04-26T02:21:24.756Z,548.00
2023-04-26T02:22:24.838Z,545.00
2023-04-26T02:23:24.918Z,546.00
2023-04-26T02:24:25.013Z,547.00
2023-04-26T02:25:25.063Z,547.00
2023-04-26T02:26:25.139Z,548.00
2023-04-26T02:27:25.206Z,548.00
2023-04-26T02:28:25.262Z,549.00
2023-04-26T02:29:42.119Z,550.00
2023-04-26T02:30:26.360Z,549.00
2023-04-26T02:31:25.387Z,549.00
2023-04-26T02:32:25.399Z,550.00
2023-04-26T02:33:25.405Z,551.00
2023-04-26T02:34:25.424Z,549.00
2023-04-26T02:35:25.433Z,548.00
2023-04-26T02:36:25.445Z,547.00
2023-04-26T02:37:25.465Z,546.00
2023-04-26T02:38:25.516Z,543.00
2023-04-26T02:39:25.586Z,539.00
2023-04-26T02:40:25.647Z,539.00
2023-04-26T02:41:25.699Z,538.00
2023-04-26T02:42:25.768Z,539.00
2023-04-26T02:43:25.838Z,541.00
2023-04-26T02:44:25.916Z,539.00
2023-04-26T02:45:25.982Z,535.00
2023-04-26T02:46:26.136Z,538.00
2023-04-26T02:47:26.152Z,540.00
2023-04-26T02:48:26.186Z,537.00
2023-04-26T02:49:26.279Z,538.00
2023-04-26T02:50:26.336Z,536.00
2023-04-26T02:51:26.406Z,540.00
2023-04-26T02:52:26.496Z,542.00
2023-04-26T02:53:26.566Z,542.00
2023-04-26T02:54:26.629Z,542.00
2023-04-26T02:55:26.703Z,542.00
2023-04-26T02:56:26.779Z,543.00
2023-04-26T02:57:26.880Z,542.00
2023-04-26T02:58:26.928Z,539.00
2023-04-26T02:59:27.002Z,538.00
2023-04-26T03:00:27.068Z,539.00
2023-04-26T03:01:27.194Z,536.00
2023-04-26T03:02:27.350Z,534.00
2023-04-26T03:03:27.590Z,529.00
2023-04-26T03:04:27.444Z,524.00
2023-04-26T03:05:27.501Z,519.00
2023-04-26T03:06:27.590Z,515.00
2023-04-26T03:07:27.690Z,504.00
2023-04-26T03:08:27.766Z,498.00
2023-04-26T03:09:27.862Z,495.00
2023-04-26T03:10:27.906Z,493.00
2023-04-26T03:11:27.979Z,491.00
2023-04-26T03:12:28.023Z,487.00
2023-04-26T03:13:28.113Z,486.00
2023-04-26T03:14:28.146Z,486.00
2023-04-26T03:15:28.202Z,487.00
2023-04-26T03:16:28.242Z,484.00
2023-04-26T03:17:28.227Z,485.00
2023-04-26T03:18:28.253Z,482.00
2023-04-26T03:19:28.379Z,479.00
2023-04-26T03:20:28.533Z,478.00
2023-04-26T03:21:28.641Z,476.00
2023-04-26T03:22:28.681Z,475.00
2023-04-26T03:23:28.717Z,472.00
2023-04-26T03:24:28.783Z,467.00
2023-04-26T03:25:28.797Z,465.00
2023-04-26T03:26:28.845Z,466.00
2023-04-26T03:27:28.938Z,464.00
2023-04-26T03:28:28.982Z,466.00
2023-04-26T03:29:29.034Z,462.00
2023-04-26T03:30:29.110Z,460.00
2023-04-26T03:31:29.147Z,461.00
2023-04-26T03:32:29.209Z,456.00
2023-04-26T03:33:29.243Z,455.00
2023-04-26T03:34:29.313Z,453.00
2023-04-26T03:35:29.371Z,454.00
2023-04-26T03:36:29.417Z,453.00
2023-04-26T03:37:29.472Z,451.00
2023-04-26T03:38:29.525Z,454.00
2023-04-26T03:39:29.589Z,454.00
2023-04-26T03:40:29.617Z,453.00
2023-04-26T03:41:29.630Z,451.00
2023-04-26T03:42:29.661Z,450.00
2023-04-26T03:43:29.687Z,448.00
2023-04-26T03:44:31.144Z,450.00
2023-04-26T03:45:29.814Z,449.00
2023-04-26T03:46:29.830Z,448.00
2023-04-26T03:47:29.825Z,448.00
2023-04-26T03:48:29.815Z,445.00
2023-04-26T03:49:29.868Z,442.00
2023-04-26T03:50:29.873Z,445.00
2023-04-26T03:51:29.910Z,448.00
2023-04-26T03:52:29.988Z,449.00
2023-04-26T03:53:30.057Z,448.00
2023-04-26T03:54:30.127Z,449.00
2023-04-26T03:55:30.198Z,448.00
2023-04-26T03:56:30.269Z,446.00
2023-04-26T03:57:30.350Z,444.00
2023-04-26T03:58:30.432Z,443.00
2023-04-26T03:59:30.509Z,443.00
2023-04-26T04:00:30.596Z,442.00
2023-04-26T04:01:30.782Z,441.00
2023-04-26T04:02:30.802Z,443.00
2023-04-26T04:03:30.961Z,443.00
2023-04-26T04:04:30.995Z,444.00
2023-04-26T04:05:31.058Z,442.00
2023-04-26T04:06:31.125Z,444.00
2023-04-26T04:07:31.179Z,443.00
2023-04-26T04:08:31.268Z,446.00
2023-04-26T04:09:31.379Z,449.00
2023-04-26T04:10:31.451Z,446.00
2023-04-26T04:11:31.553Z,447.00
2023-04-26T04:12:31.648Z,448.00
2023-04-26T04:13:31.790Z,450.00
2023-04-26T04:14:31.835Z,450.00
2023-04-26T04:15:31.963Z,451.00
2023-04-26T04:16:32.090Z,454.00
2023-04-26T04:17:32.129Z,454.00
2023-04-26T04:18:32.209Z,450.00
2023-04-26T04:19:32.319Z,449.00
2023-04-26T04:20:32.386Z,449.00
2023-04-26T04:21:32.462Z,446.00
2023-04-26T04:22:32.548Z,445.00
2023-04-26T04:23:32.610Z,443.00
2023-04-26T04:24:34.285Z,443.00
2023-04-26T04:25:32.794Z,439.00
2023-04-26T04:26:32.872Z,440.00
2023-04-26T04:27:32.924Z,441.00
2023-04-26T04:28:32.964Z,444.00
2023-04-26T04:29:33.025Z,444.00
2023-04-26T04:30:33.083Z,444.00
2023-04-26T04:31:33.190Z,447.00
2023-04-26T04:32:33.192Z,449.00
2023-04-26T04:33:33.182Z,450.00
2023-04-26T04:34:33.250Z,451.00
2023-04-26T04:35:33.294Z,451.00
2023-04-26T04:36:33.352Z,453.00
2023-04-26T04:37:33.403Z,454.00
2023-04-26T04:38:33.466Z,455.00
2023-04-26T04:39:33.518Z,457.00
2023-04-26T04:40:33.583Z,457.00
2023-04-26T04:41:33.641Z,456.00
2023-04-26T04:42:33.701Z,454.00
2023-04-26T04:43:33.751Z,452.00
2023-04-26T04:44:33.825Z,453.00
2023-04-26T04:45:33.881Z,452.00
2023-04-26T04:46:33.967Z,455.00
2023-04-26T04:47:34.088Z,452.00
2023-04-26T04:48:34.097Z,451.00
2023-04-26T04:49:34.133Z,447.00
2023-04-26T04:50:34.221Z,445.00
2023-04-26T04:51:34.262Z,444.00
2023-04-26T04:52:34.321Z,449.00
2023-04-26T04:53:34.388Z,448.00
2023-04-26T04:54:34.467Z,447.00
2023-04-26T04:55:34.523Z,449.00
2023-04-26T04:56:34.558Z,449.00
2023-04-26T04:57:34.591Z,454.00
2023-04-26T04:58:34.628Z,451.00
2023-04-26T04:59:34.656Z,452.00
2023-04-26T05:00:34.705Z,453.00
2023-04-26T05:01:34.759Z,451.00
2023-04-26T05:02:34.855Z,453.00
2023-04-26T05:03:34.908Z,451.00
2023-04-26T05:04:35.214Z,454.00
2023-04-26T05:05:34.885Z,453.00
2023-04-26T05:06:34.949Z,453.00
2023-04-26T05:07:34.973Z,453.00
2023-04-26T05:08:35.040Z,455.00
2023-04-26T05:09:35.073Z,454.00
2023-04-26T05:10:35.121Z,453.00
2023-04-26T05:11:35.168Z,454.00
2023-04-26T05:12:35.255Z,456.00
2023-04-26T05:13:35.346Z,456.00
2023-04-26T05:14:35.396Z,456.00
2023-04-26T05:15:35.447Z,455.00
2023-04-26T05:16:35.476Z,457.00
2023-04-26T05:17:35.572Z,457.00
2023-04-26T05:18:35.589Z,454.00
2023-04-26T05:19:35.648Z,453.00
2023-04-26T05:20:35.707Z,452.00
2023-04-26T05:21:35.783Z,452.00
2023-04-26T05:22:35.853Z,450.00
2023-04-26T05:23:35.916Z,447.00
2023-04-26T05:24:35.991Z,447.00
2023-04-26T05:25:36.081Z,448.00
2023-04-26T05:26:36.140Z,448.00
2023-04-26T05:27:36.242Z,444.00
2023-04-26T05:28:36.322Z,455.00
2023-04-26T05:29:36.428Z,468.00
2023-04-26T05:30:36.512Z,474.00
2023-04-26T05:31:36.636Z,481.00
2023-04-26T05:32:36.718Z,592.00
2023-04-26T05:33:36.781Z,603.00
2023-04-26T05:34:36.869Z,604.00
2023-04-26T05:35:36.931Z,602.00
2023-04-26T05:36:37.052Z,628.00
2023-04-26T05:37:37.195Z,647.00
2023-04-26T05:38:37.206Z,653.00
2023-04-26T05:39:37.220Z,655.00
2023-04-26T05:40:37.250Z,668.00
2023-04-26T05:41:37.252Z,704.00
2023-04-26T05:42:37.302Z,716.00
2023-04-26T05:43:37.287Z,732.00
2023-04-26T05:44:37.324Z,733.00
2023-04-26T05:45:37.390Z,733.00
2023-04-26T05:46:37.374Z,738.00
2023-04-26T05:47:37.455Z,677.00
2023-04-26T05:48:37.457Z,640.00
2023-04-26T05:49:37.471Z,638.00
2023-04-26T05:50:38.910Z,572.00
2023-04-26T05:51:37.630Z,575.00
2023-04-26T05:52:37.676Z,584.00
2023-04-26T05:53:37.718Z,582.00
2023-04-26T05:54:37.734Z,564.00
2023-04-26T05:55:37.787Z,543.00
2023-04-26T05:56:37.817Z,541.00
2023-04-26T05:57:38.018Z,538.00
2023-04-26T05:58:37.952Z,538.00
2023-04-26T05:59:38.026Z,535.00
2023-04-26T06:00:38.092Z,541.00
2023-04-26T06:01:38.159Z,541.00
2023-04-26T06:02:38.352Z,530.00
2023-04-26T06:03:38.439Z,527.00
2023-04-26T06:04:38.651Z,526.00
2023-04-26T06:05:38.492Z,525.00
2023-04-26T06:06:38.641Z,521.00
2023-04-26T06:07:38.614Z,517.00
2023-04-26T06:08:38.698Z,514.00
2023-04-26T06:09:38.800Z,511.00
2023-04-26T06:10:38.909Z,524.00
2023-04-26T06:11:38.961Z,536.00
2023-04-26T06:12:39.037Z,537.00
2023-04-26T06:13:39.141Z,540.00
2023-04-26T06:14:39.206Z,541.00
2023-04-26T06:15:39.286Z,542.00
2023-04-26T06:16:40.308Z,557.00
2023-04-26T06:17:39.467Z,565.00
2023-04-26T06:18:39.460Z,570.00
2023-04-26T06:19:39.481Z,574.00
2023-04-26T06:20:39.535Z,579.00
2023-04-26T06:21:39.535Z,587.00
2023-04-26T06:22:39.602Z,600.00
2023-04-26T06:23:39.608Z,604.00
2023-04-26T06:24:39.618Z,600.00
2023-04-26T06:25:39.673Z,598.00
2023-04-26T06:26:39.683Z,599.00
2023-04-26T06:27:39.716Z,595.00
2023-04-26T06:28:42.122Z,595.00
2023-04-26T06:29:39.925Z,588.00
2023-04-26T06:30:40.030Z,578.00
2023-04-26T06:31:40.005Z,571.00
2023-04-26T06:32:40.062Z,551.00
2023-04-26T06:33:40.101Z,541.00
2023-04-26T06:34:40.133Z,565.00
2023-04-26T06:35:40.222Z,609.00
2023-04-26T06:36:40.252Z,614.00
2023-04-26T06:37:40.314Z,625.00
2023-04-26T06:38:40.353Z,640.00
2023-04-26T06:39:40.399Z,681.00
2023-04-26T06:40:40.420Z,701.00
2023-04-26T06:41:40.496Z,718.00
2023-04-26T06:42:40.563Z,747.00
2023-04-26T06:43:40.669Z,757.00
2023-04-26T06:44:40.708Z,801.00
2023-04-26T06:45:42.165Z,824.00
2023-04-26T06:46:40.818Z,856.00
2023-04-26T06:47:40.791Z,859.00
2023-04-26T06:48:40.802Z,861.00
2023-04-26T06:49:40.912Z,872.00
2023-04-26T06:50:40.884Z,878.00
2023-04-26T06:51:40.911Z,897.00
2023-04-26T06:52:40.920Z,913.00
2023-04-26T06:53:40.950Z,915.00
2023-04-26T06:54:53.680Z,923.00
2023-04-26T06:55:42.011Z,950.00
2023-04-26T06:56:41.034Z,966.00
2023-04-26T06:57:41.058Z,963.00
2023-04-26T06:58:41.083Z,959.00
2023-04-26T06:59:41.121Z,951.00
2023-04-26T07:00:41.114Z,946.00
2023-04-26T07:01:41.189Z,931.00
2023-04-26T07:02:41.285Z,925.00
2023-04-26T07:03:41.335Z,923.00
2023-04-26T07:04:41.403Z,922.00
2023-04-26T07:05:41.330Z,915.00
2023-04-26T07:06:41.284Z,898.00
2023-04-26T07:07:41.299Z,893.00
2023-04-26T07:08:41.322Z,895.00
2023-04-26T07:09:41.355Z,899.00
2023-04-26T07:10:41.391Z,907.00
2023-04-26T07:11:41.418Z,906.00
2023-04-26T07:12:41.431Z,906.00
2023-04-26T07:13:41.553Z,893.00
2023-04-26T07:14:41.498Z,886.00
2023-04-26T07:15:41.581Z,871.00
2023-04-26T07:16:41.616Z,863.00
2023-04-26T07:17:41.590Z,863.00
2023-04-26T07:18:41.647Z,866.00
2023-04-26T07:19:41.702Z,877.00
2023-04-26T07:20:41.737Z,900.00
2023-04-26T07:21:41.768Z,905.00
2023-04-26T07:22:41.815Z,888.00
2023-04-26T07:23:41.828Z,869.00
2023-04-26T07:24:41.864Z,865.00
2023-04-26T07:25:41.872Z,854.00
2023-04-26T07:26:41.895Z,876.00
2023-04-26T07:27:41.931Z,880.00
2023-04-26T07:28:41.945Z,870.00
2023-04-26T07:29:42.107Z,870.00
2023-04-26T07:30:42.019Z,875.00
2023-04-26T07:31:42.056Z,863.00
2023-04-26T07:32:42.098Z,849.00
2023-04-26T07:33:42.112Z,859.00
2023-04-26T07:34:42.084Z,867.00
2023-04-26T07:35:42.113Z,875.00
2023-04-26T07:36:42.152Z,831.00
2023-04-26T07:37:42.177Z,846.00
2023-04-26T07:38:42.202Z,841.00
2023-04-26T07:39:42.255Z,826.00
2023-04-26T07:40:42.258Z,823.00
2023-04-26T07:41:43.864Z,822.00
2023-04-26T07:42:42.299Z,813.00
2023-04-26T07:43:42.304Z,811.00
2023-04-26T07:44:42.315Z,821.00
2023-04-26T07:45:42.394Z,840.00
2023-04-26T07:46:42.341Z,862.00
2023-04-26T07:47:42.363Z,886.00
2023-04-26T07:48:42.381Z,913.00
2023-04-26T07:49:42.386Z,917.00
2023-04-26T07:50:42.410Z,921.00
2023-04-26T07:51:42.487Z,927.00
2023-04-26T07:52:42.452Z,984.00
2023-04-26T07:53:42.529Z,998.00
2023-04-26T07:54:42.467Z,996.00
2023-04-26T07:55:42.494Z,993.00
2023-04-26T07:56:42.672Z,993.00
2023-04-26T07:57:42.522Z,1001.00
2023-04-26T07:58:42.528Z,1007.00
2023-04-26T07:59:42.566Z,1011.00
2023-04-26T08:00:42.610Z,1017.00
2023-04-26T08:01:42.617Z,1025.00
2023-04-26T08:02:44.599Z,1045.00
2023-04-26T08:03:42.845Z,1071.00
2023-04-26T08:04:42.758Z,1074.00
2023-04-26T08:05:42.975Z,1076.00
2023-04-26T08:06:42.657Z,1080.00
2023-04-26T08:07:42.711Z,1083.00
2023-04-26T08:08:42.686Z,1080.00
2023-04-26T08:09:42.713Z,1081.00
2023-04-26T08:10:42.734Z,1085.00
2023-04-26T08:11:42.763Z,1093.00
2023-04-26T08:12:42.753Z,1097.00
2023-04-26T08:13:42.762Z,1096.00
2023-04-26T08:14:42.759Z,1094.00
2023-04-26T08:15:42.769Z,1095.00
2023-04-26T08:16:42.785Z,1098.00
2023-04-26T08:17:42.824Z,1101.00
2023-04-26T08:18:44.666Z,1101.00
2023-04-26T08:19:42.805Z,1110.00
2023-04-26T08:20:42.825Z,1110.00
2023-04-26T08:21:42.842Z,1100.00
2023-04-26T08:22:42.850Z,1096.00
2023-04-26T08:23:42.875Z,1095.00
2023-04-26T08:24:42.876Z,1094.00
2023-04-26T08:25:42.952Z,1091.00
2023-04-26T08:26:42.919Z,1098.00
2023-04-26T08:27:42.929Z,1099.00
2023-04-26T08:28:42.938Z,1109.00
2023-04-26T08:29:42.957Z,1109.00
2023-04-26T08:30:42.964Z,1118.00
2023-04-26T08:31:43.005Z,1130.00
2023-04-26T08:32:43.058Z,1130.00
2023-04-26T08:33:43.093Z,1124.00
2023-04-26T08:34:43.006Z,1112.00
2023-04-26T08:35:43.034Z,1080.00
2023-04-26T08:36:43.034Z,1072.00
2023-04-26T08:37:43.063Z,1056.00
2023-04-26T08:38:43.077Z,1042.00
2023-04-26T08:39:43.107Z,1032.00
2023-04-26T08:40:43.194Z,1017.00
2023-04-26T08:41:43.293Z,999.00
2023-04-26T08:42:43.337Z,993.00
2023-04-26T08:43:43.400Z,979.00
2023-04-26T08:44:43.494Z,964.00
2023-04-26T08:45:43.489Z,953.00
2023-04-26T08:46:43.536Z,947.00
2023-04-26T08:47:43.523Z,1030.00
2023-04-26T08:48:43.528Z,1012.00
2023-04-26T08:49:43.536Z,1012.00
2023-04-26T08:50:43.547Z,1043.00
2023-04-26T08:51:43.607Z,1053.00
2023-04-26T08:52:43.573Z,1070.00
2023-04-26T08:53:43.630Z,1082.00
2023-04-26T08:54:43.692Z,1154.00
2023-04-26T08:55:43.763Z,1169.00
2023-04-26T08:56:43.817Z,1176.00
2023-04-26T08:57:43.900Z,1178.00
2023-04-26T08:58:43.993Z,1167.00
2023-04-26T08:59:44.063Z,1165.00
2023-04-26T09:00:44.147Z,1166.00
2023-04-26T09:01:44.245Z,1176.00
2023-04-26T09:02:44.388Z,1191.00
2023-04-26T09:03:45.374Z,1198.00
2023-04-26T09:04:44.545Z,1201.00
2023-04-26T09:05:44.617Z,1214.00
2023-04-26T09:06:44.564Z,1210.00
2023-04-26T09:07:44.636Z,1223.00
2023-04-26T09:08:44.637Z,1272.00
2023-04-26T09:09:44.660Z,1258.00
2023-04-26T09:10:44.667Z,1248.00
2023-04-26T09:11:44.670Z,1232.00
2023-04-26T09:12:44.703Z,1163.00
2023-04-26T09:13:44.709Z,1146.00
2023-04-26T09:14:44.704Z,1156.00
2023-04-26T09:15:44.777Z,1132.00
2023-04-26T09:16:44.827Z,1137.00
2023-04-26T09:17:44.759Z,1216.00
2023-04-26T09:18:44.745Z,1230.00
2023-04-26T09:19:44.755Z,1187.00
2023-04-26T09:20:44.758Z,1162.00
2023-04-26T09:21:44.788Z,1206.00
2023-04-26T09:22:44.785Z,1211.00
2023-04-26T09:23:44.818Z,1110.00
2023-04-26T09:24:44.785Z,1093.00
2023-04-26T09:25:44.842Z,1108.00
2023-04-26T09:26:44.825Z,1116.00
2023-04-26T09:27:44.894Z,1111.00
2023-04-26T09:28:44.826Z,1098.00
2023-04-26T09:29:44.827Z,1086.00
2023-04-26T09:30:44.842Z,1091.00
2023-04-26T09:31:47.012Z,1095.00
2023-04-26T09:32:44.881Z,1091.00
2023-04-26T09:33:44.874Z,1092.00
2023-04-26T09:34:44.870Z,1083.00
2023-04-26T09:35:44.885Z,1050.00
2023-04-26T09:36:44.912Z,1049.00
2023-04-26T09:37:57.585Z,1054.00
2023-04-26T09:38:45.907Z,1062.00
2023-04-26T09:39:44.927Z,1064.00
2023-04-26T09:40:44.953Z,1058.00
2023-04-26T09:41:44.969Z,1114.00
2023-04-26T09:42:44.959Z,1123.00
2023-04-26T09:43:44.958Z,1099.00
2023-04-26T09:44:44.955Z,1097.00
2023-04-26T09:45:44.980Z,1072.00
2023-04-26T09:46:45.022Z,1059.00
2023-04-26T09:47:45.021Z,1046.00
2023-04-26T09:48:46.542Z,996.00
2023-04-26T09:49:45.001Z,983.00
2023-04-26T09:50:45.010Z,972.00
2023-04-26T09:51:45.016Z,940.00
2023-04-26T09:52:45.042Z,912.00
2023-04-26T09:53:45.041Z,906.00
2023-04-26T09:54:45.066Z,857.00
2023-04-26T09:55:45.390Z,849.00
2023-04-26T09:56:45.085Z,840.00
2023-04-26T09:57:45.117Z,828.00
2023-04-26T09:58:45.119Z,817.00
2023-04-26T09:59:45.135Z,806.00
2023-04-26T10:00:45.156Z,759.00
2023-04-26T10:01:45.169Z,757.00
2023-04-26T10:02:45.259Z,755.00
2023-04-26T10:03:45.468Z,752.00
2023-04-26T10:04:45.241Z,740.00
2023-04-26T10:05:45.318Z,711.00
2023-04-26T10:06:45.382Z,715.00
2023-04-26T10:07:45.509Z,713.00
2023-04-26T10:08:45.572Z,708.00
2023-04-26T10:09:45.620Z,698.00
2023-04-26T10:10:45.681Z,689.00
2023-04-26T10:11:45.756Z,682.00
2023-04-26T10:12:45.827Z,677.00
2023-04-26T10:13:45.896Z,678.00
2023-04-26T10:14:45.989Z,680.00
2023-04-26T10:15:46.077Z,677.00
2023-04-26T10:16:46.204Z,663.00
2023-04-26T10:17:46.241Z,658.00
2023-04-26T10:18:46.268Z,653.00
2023-04-26T10:19:46.342Z,651.00
2023-04-26T10:20:46.437Z,647.00
2023-04-26T10:21:46.484Z,641.00
2023-04-26T10:22:46.553Z,642.00
2023-04-26T10:23:46.619Z,645.00
2023-04-26T10:24:46.700Z,645.00
2023-04-26T10:25:46.766Z,650.00
2023-04-26T10:26:46.838Z,650.00
2023-04-26T10:27:46.901Z,652.00
2023-04-26T10:28:46.967Z,653.00
2023-04-26T10:29:47.039Z,653.00
2023-04-26T10:30:47.111Z,651.00
2023-04-26T10:31:47.204Z,653.00
2023-04-26T10:32:47.273Z,650.00
2023-04-26T10:33:47.290Z,652.00
2023-04-26T10:34:47.359Z,654.00
2023-04-26T10:35:47.419Z,654.00
2023-04-26T10:36:47.500Z,655.00
2023-04-26T10:37:47.497Z,653.00
2023-04-26T10:38:47.503Z,648.00
2023-04-26T10:39:47.506Z,649.00
2023-04-26T10:40:47.536Z,649.00
2023-04-26T10:41:47.509Z,657.00
2023-04-26T10:42:47.522Z,653.00
2023-04-26T10:43:47.546Z,652.00
2023-04-26T10:44:47.547Z,651.00
2023-04-26T10:45:47.567Z,650.00
2023-04-26T10:46:47.560Z,647.00
2023-04-26T10:47:47.661Z,648.00
2023-04-26T10:48:47.588Z,647.00
2023-04-26T10:49:47.658Z,650.00
2023-04-26T10:50:47.696Z,651.00
2023-04-26T10:51:47.794Z,650.00
2023-04-26T10:52:47.815Z,649.00
2023-04-26T10:53:47.868Z,646.00
2023-04-26T10:54:47.962Z,648.00
2023-04-26T10:55:48.010Z,650.00
2023-04-26T10:56:48.054Z,653.00
2023-04-26T10:57:48.178Z,653.00
2023-04-26T10:58:48.199Z,652.00
2023-04-26T10:59:54.648Z,652.00
2023-04-26T11:00:49.387Z,654.00
2023-04-26T11:01:48.494Z,652.00
2023-04-26T11:02:50.439Z,649.00
2023-04-26T11:03:48.637Z,649.00
2023-04-26T11:04:48.525Z,650.00
2023-04-26T11:05:48.473Z,649.00
2023-04-26T11:06:48.479Z,646.00
2023-04-26T11:07:48.468Z,644.00
2023-04-26T11:08:48.477Z,643.00
2023-04-26T11:09:48.497Z,644.00
2023-04-26T11:10:48.547Z,643.00
2023-04-26T11:11:48.503Z,643.00
2023-04-26T11:12:48.495Z,640.00
2023-04-26T11:13:48.502Z,639.00
2023-04-26T11:14:48.515Z,638.00
2023-04-26T11:15:49.943Z,634.00
2023-04-26T11:16:48.533Z,630.00
2023-04-26T11:17:48.591Z,632.00
2023-04-26T11:18:48.535Z,635.00
2023-04-26T11:19:48.548Z,635.00
2023-04-26T11:20:48.558Z,634.00
2023-04-26T11:21:48.587Z,633.00
2023-04-26T11:22:48.576Z,630.00
2023-04-26T11:23:48.565Z,627.00
2023-04-26T11:24:48.576Z,622.00
2023-04-26T11:25:48.589Z,616.00
2023-04-26T11:26:48.611Z,607.00
2023-04-26T11:27:48.580Z,604.00
2023-04-26T11:28:48.587Z,599.00
2023-04-26T11:29:48.587Z,589.00
2023-04-26T11:30:48.625Z,580.00
2023-04-26T11:31:48.713Z,572.00
2023-04-26T11:32:48.623Z,571.00
2023-04-26T11:33:50.557Z,568.00
2023-04-26T11:34:48.614Z,565.00
2023-04-26T11:35:48.645Z,563.00
2023-04-26T11:36:48.653Z,566.00
2023-04-26T11:37:48.689Z,566.00
2023-04-26T11:38:48.741Z,565.00
2023-04-26T11:39:48.805Z,565.00
2023-04-26T11:40:48.872Z,569.00
2023-04-26T11:41:48.932Z,567.00
2023-04-26T11:42:48.990Z,570.00
2023-04-26T11:43:49.028Z,570.00
2023-04-26T11:44:49.064Z,575.00
2023-04-26T11:45:49.123Z,579.00
2023-04-26T11:46:49.270Z,579.00
2023-04-26T11:47:49.238Z,579.00
2023-04-26T11:48:49.280Z,579.00
2023-04-26T11:49:49.305Z,583.00
2023-04-26T11:50:49.365Z,584.00
2023-04-26T11:51:49.381Z,587.00
2023-04-26T11:52:49.445Z,584.00
2023-04-26T11:53:49.443Z,582.00
2023-04-26T11:54:49.450Z,578.00
2023-04-26T11:55:49.447Z,584.00
2023-04-26T11:56:49.457Z,581.00
2023-04-26T11:57:49.467Z,581.00
2023-04-26T11:58:49.459Z,584.00
2023-04-26T11:59:49.472Z,583.00
2023-04-26T12:00:49.490Z,585.00
2023-04-26T12:01:49.578Z,588.00
2023-04-26T12:02:49.699Z,586.00
2023-04-26T12:03:49.681Z,583.00
2023-04-26T12:04:49.583Z,583.00
2023-04-26T12:05:49.535Z,583.00
2023-04-26T12:06:49.560Z,585.00
2023-04-26T12:07:49.551Z,585.00
2023-04-26T12:08:49.561Z,583.00
2023-04-26T12:09:49.573Z,582.00
2023-04-26T12:10:49.584Z,580.00
2023-04-26T12:11:49.582Z,577.00
2023-04-26T12:12:49.621Z,575.00
2023-04-26T12:13:49.656Z,575.00
2023-04-26T12:14:49.717Z,569.00
2023-04-26T12:15:49.726Z,564.00
2023-04-26T12:16:49.812Z,559.00
2023-04-26T12:17:49.821Z,559.00
2023-04-26T12:18:49.818Z,556.00
2023-04-26T12:19:49.848Z,555.00
2023-04-26T12:20:49.869Z,555.00
2023-04-26T12:21:49.903Z,553.00
2023-04-26T12:22:49.917Z,551.00
2023-04-26T12:23:49.949Z,552.00
2023-04-26T12:24:49.967Z,552.00
2023-04-26T12:25:50.000Z,553.00